Time,TemperatureF,DewpointF,PressureIn,WindDirection,WindDirectionDegrees,WindSpeedMPH,WindSpeedGustMPH,Humidity,HourlyPrecipIn,Conditions,Clouds,dailyrainin,SoftwareType,DateUTC
2013-04-03 00:03:00,35.0,12.0,-100.00,NE,35,6.0,10.0,37,-99.99,,,-99.99,,2013-04-03 04:03:00,
2013-04-03 00:13:00,35.0,12.0,-100.00,NE,55,5.0,12.0,38,-99.99,,,-99.99,,2013-04-03 04:13:00,
2013-04-03 00:23:00,35.0,12.0,-100.00,NE,55,5.0,12.0,38,-99.99,,,-99.99,,2013-04-03 04:23:00,
2013-04-03 00:33:00,35.0,12.0,-100.00,NE,50,3.0,10.0,38,-99.99,,,-99.99,,2013-04-03 04:33:00,
2013-04-03 00:43:00,34.0,12.0,-100.00,NE,45,4.0,10.0,39,-99.99,,,-99.99,,2013-04-03 04:43:00,
2013-04-03 00:53:00,34.0,12.0,-100.00,NE,45,4.0,10.0,39,-99.99,,,-99.99,,2013-04-03 04:53:00,
2013-04-03 01:03:00,34.0,11.0,-100.00,NE,55,3.0,7.0,39,-99.99,,,-99.99,,2013-04-03 05:03:00,
2013-04-03 01:13:00,33.0,11.0,-100.00,NE,45,3.0,7.0,39,-99.99,,,-99.99,,2013-04-03 05:13:00,
2013-04-03 01:23:00,33.0,11.0,-100.00,NE,45,3.0,7.0,39,-99.99,,,-99.99,,2013-04-03 05:23:00,
2013-04-03 01:32:00,34.0,11.0,-100.00,East,85,11.0,18.0,38,-99.99,,,-99.99,,2013-04-03 05:32:00,
2013-04-03 01:42:00,33.0,10.0,-100.00,ENE,70,3.0,11.0,37,-99.99,,,-99.99,,2013-04-03 05:42:00,
2013-04-03 01:52:00,33.0,10.0,-100.00,ENE,70,3.0,11.0,37,-99.99,,,-99.99,,2013-04-03 05:52:00,
2013-04-03 02:03:00,33.0,9.0,-100.00,East,80,3.0,10.0,37,-99.99,,,-99.99,,2013-04-03 06:03:00,
2013-04-03 02:12:00,33.0,9.0,-100.00,NNE,20,3.0,8.0,37,-99.99,,,-99.99,,2013-04-03 06:12:00,
2013-04-03 02:22:00,33.0,9.0,-100.00,NNE,20,3.0,8.0,37,-99.99,,,-99.99,,2013-04-03 06:22:00,
2013-04-03 02:32:00,32.0,9.0,-100.00,NE,35,3.0,7.0,38,-99.99,,,-99.99,,2013-04-03 06:32:00,
2013-04-03 02:42:00,31.0,9.0,-100.00,NE,35,2.0,5.0,39,-99.99,,,-99.99,,2013-04-03 06:42:00,
2013-04-03 02:52:00,31.0,9.0,-100.00,NE,35,2.0,5.0,39,-99.99,,,-99.99,,2013-04-03 06:52:00,
2013-04-03 03:02:00,31.0,9.0,-100.00,NE,35,3.0,5.0,39,-99.99,,,-99.99,,2013-04-03 07:02:00,
2013-04-03 03:12:00,31.0,9.0,-100.00,NE,55,3.0,5.0,40,-99.99,,,-99.99,,2013-04-03 07:12:00,
2013-04-03 03:23:00,31.0,9.0,-100.00,NE,55,3.0,5.0,40,-99.99,,,-99.99,,2013-04-03 07:23:00,
2013-04-03 03:33:00,30.0,9.0,-100.00,NE,55,2.0,5.0,40,-99.99,,,-99.99,,2013-04-03 07:33:00,
2013-04-03 03:42:00,30.0,9.0,-100.00,NE,35,3.0,5.0,41,-99.99,,,-99.99,,2013-04-03 07:42:00,
2013-04-03 03:52:00,30.0,9.0,-100.00,NE,35,3.0,5.0,41,-99.99,,,-99.99,,2013-04-03 07:52:00,
2013-04-03 04:03:00,29.0,9.0,-100.00,NNE,25,3.0,4.0,43,-99.99,,,-99.99,,2013-04-03 08:03:00,
2013-04-03 04:12:00,29.0,10.0,-100.00,NE,35,3.0,5.0,44,-99.99,,,-99.99,,2013-04-03 08:12:00,
2013-04-03 04:22:00,29.0,10.0,-100.00,NE,35,3.0,5.0,44,-99.99,,,-99.99,,2013-04-03 08:22:00,
2013-04-03 04:33:00,29.0,10.0,-100.00,NE,45,2.0,6.0,43,-99.99,,,-99.99,,2013-04-03 08:33:00,
2013-04-03 04:43:00,29.0,9.0,-100.00,NNE,30,2.0,3.0,44,-99.99,,,-99.99,,2013-04-03 08:43:00,
2013-04-03 04:52:00,29.0,9.0,-100.00,NNE,30,2.0,3.0,44,-99.99,,,-99.99,,2013-04-03 08:52:00,
2013-04-03 05:02:00,28.0,10.0,-100.00,NNE,30,3.0,5.0,47,-99.99,,,-99.99,,2013-04-03 09:02:00,
2013-04-03 05:12:00,28.0,11.0,-100.00,NE,40,2.0,4.0,47,-99.99,,,-99.99,,2013-04-03 09:12:00,
2013-04-03 05:22:00,28.0,11.0,-100.00,NE,40,2.0,4.0,47,-99.99,,,-99.99,,2013-04-03 09:22:00,
2013-04-03 05:33:00,29.0,11.0,-100.00,NNE,20,1.0,4.0,47,-99.99,,,-99.99,,2013-04-03 09:33:00,
2013-04-03 05:43:00,28.0,11.0,-100.00,NNE,30,3.0,5.0,48,-99.99,,,-99.99,,2013-04-03 09:43:00,
2013-04-03 05:53:00,28.0,11.0,-100.00,NNE,30,3.0,5.0,48,-99.99,,,-99.99,,2013-04-03 09:53:00,
2013-04-03 06:03:00,29.0,11.0,-100.00,NE,50,4.0,7.0,47,-99.99,,,-99.99,,2013-04-03 10:03:00,
2013-04-03 06:12:00,29.0,11.0,-100.00,NE,40,2.0,6.0,46,-99.99,,,-99.99,,2013-04-03 10:12:00,
2013-04-03 06:22:00,29.0,11.0,-100.00,NE,40,2.0,6.0,46,-99.99,,,-99.99,,2013-04-03 10:22:00,
2013-04-03 06:33:00,29.0,11.0,-100.00,NE,45,3.0,6.0,46,-99.99,,,-99.99,,2013-04-03 10:33:00,
2013-04-03 06:43:00,30.0,11.0,-100.00,NE,35,4.0,7.0,46,-99.99,,,-99.99,,2013-04-03 10:43:00,
2013-04-03 06:52:00,30.0,11.0,-100.00,NE,35,4.0,7.0,46,-99.99,,,-99.99,,2013-04-03 10:52:00,
2013-04-03 07:02:00,30.0,12.0,-100.00,NE,55,4.0,9.0,46,-99.99,,,-99.99,,2013-04-03 11:02:00,
2013-04-03 07:12:00,29.0,11.0,-100.00,NE,45,4.0,6.0,46,-99.99,,,-99.99,,2013-04-03 11:12:00,
2013-04-03 07:23:00,29.0,11.0,-100.00,NE,45,4.0,6.0,46,-99.99,,,-99.99,,2013-04-03 11:23:00,
2013-04-03 07:32:00,29.0,11.0,-100.00,NE,40,1.0,5.0,47,-99.99,,,-99.99,,2013-04-03 11:32:00,
2013-04-03 07:42:00,28.0,11.0,-100.00,NE,50,2.0,4.0,49,-99.99,,,-99.99,,2013-04-03 11:42:00,
2013-04-03 07:52:00,28.0,11.0,-100.00,NE,50,2.0,4.0,49,-99.99,,,-99.99,,2013-04-03 11:52:00,
2013-04-03 08:02:00,30.0,13.0,-100.00,NNE,30,2.0,3.0,49,-99.99,,,-99.99,,2013-04-03 12:02:00,
2013-04-03 08:13:00,32.0,14.0,-100.00,ENE,60,1.0,6.0,48,-99.99,,,-99.99,,2013-04-03 12:13:00,
2013-04-03 08:22:00,32.0,14.0,-100.00,ENE,60,1.0,6.0,48,-99.99,,,-99.99,,2013-04-03 12:22:00,
2013-04-03 08:33:00,32.0,14.0,-100.00,NNE,25,3.0,7.0,47,-99.99,,,-99.99,,2013-04-03 12:33:00,
2013-04-03 08:42:00,34.0,15.0,-100.00,ENE,60,5.0,10.0,46,-99.99,,,-99.99,,2013-04-03 12:42:00,
2013-04-03 08:52:00,34.0,15.0,-100.00,ENE,60,5.0,10.0,46,-99.99,,,-99.99,,2013-04-03 12:52:00,
2013-04-03 09:02:00,35.0,15.0,-100.00,ENE,75,7.0,11.0,45,-99.99,,,-99.99,,2013-04-03 13:02:00,
2013-04-03 09:13:00,36.0,16.0,-100.00,East,85,7.0,17.0,44,-99.99,,,-99.99,,2013-04-03 13:13:00,
2013-04-03 09:22:00,36.0,16.0,-100.00,East,85,7.0,17.0,44,-99.99,,,-99.99,,2013-04-03 13:22:00,
2013-04-03 09:32:00,36.0,15.0,-100.00,East,95,10.0,13.0,42,-99.99,,,-99.99,,2013-04-03 13:32:00,
2013-04-03 09:42:00,35.0,15.0,-100.00,NE,40,4.0,13.0,44,-99.99,,,-99.99,,2013-04-03 13:42:00,
2013-04-03 09:52:00,35.0,15.0,-100.00,NE,40,4.0,13.0,44,-99.99,,,-99.99,,2013-04-03 13:52:00,
2013-04-03 10:02:00,35.0,15.0,-100.00,NE,45,9.0,14.0,44,-99.99,,,-99.99,,2013-04-03 14:02:00,
2013-04-03 10:13:00,36.0,16.0,-100.00,East,100,11.0,17.0,43,-99.99,,,-99.99,,2013-04-03 14:13:00,
2013-04-03 10:22:00,36.0,16.0,-100.00,East,100,11.0,17.0,43,-99.99,,,-99.99,,2013-04-03 14:22:00,
2013-04-03 10:32:00,38.0,16.0,-100.00,ESE,110,12.0,19.0,41,-99.99,,,-99.99,,2013-04-03 14:32:00,
2013-04-03 10:43:00,39.0,16.0,-100.00,ESE,115,9.0,15.0,39,-99.99,,,-99.99,,2013-04-03 14:43:00,
2013-04-03 10:52:00,39.0,16.0,-100.00,ESE,115,9.0,15.0,39,-99.99,,,-99.99,,2013-04-03 14:52:00,
2013-04-03 11:03:00,39.0,15.0,-100.00,East,95,13.0,20.0,38,-99.99,,,-99.99,,2013-04-03 15:03:00,
2013-04-03 11:13:00,40.0,15.0,-100.00,East,100,10.0,21.0,36,-99.99,,,-99.99,,2013-04-03 15:13:00,
2013-04-03 11:23:00,40.0,15.0,-100.00,East,100,10.0,21.0,36,-99.99,,,-99.99,,2013-04-03 15:23:00,
2013-04-03 11:33:00,41.0,15.0,-100.00,ESE,115,13.0,22.0,34,-99.99,,,-99.99,,2013-04-03 15:33:00,
2013-04-03 11:43:00,40.0,14.0,-100.00,East,80,12.0,18.0,34,-99.99,,,-99.99,,2013-04-03 15:43:00,
2013-04-03 11:53:00,40.0,14.0,-100.00,East,80,12.0,18.0,34,-99.99,,,-99.99,,2013-04-03 15:53:00,
2013-04-03 12:04:00,39.0,14.0,-100.00,NE,35,11.0,19.0,36,-99.99,,,-99.99,,2013-04-03 16:04:00,
2013-04-03 12:13:00,40.0,15.0,-100.00,NE,50,11.0,20.0,36,-99.99,,,-99.99,,2013-04-03 16:13:00,
2013-04-03 12:25:00,40.0,15.0,-100.00,NE,50,11.0,20.0,36,-99.99,,,-99.99,,2013-04-03 16:25:00,
2013-04-03 12:33:00,41.0,16.0,-100.00,East,90,15.0,22.0,35,-99.99,,,-99.99,,2013-04-03 16:33:00,
2013-04-03 12:44:00,42.0,16.0,-100.00,East,90,17.0,22.0,34,-99.99,,,-99.99,,2013-04-03 16:44:00,
2013-04-03 12:52:00,42.0,16.0,-100.00,East,90,17.0,22.0,34,-99.99,,,-99.99,,2013-04-03 16:52:00,
2013-04-03 13:03:00,41.0,15.0,-100.00,East,85,13.0,24.0,34,-99.99,,,-99.99,,2013-04-03 17:03:00,
2013-04-03 13:14:00,41.0,14.0,-100.00,East,85,12.0,23.0,33,-99.99,,,-99.99,,2013-04-03 17:14:00,
2013-04-03 13:23:00,41.0,14.0,-100.00,East,85,12.0,23.0,33,-99.99,,,-99.99,,2013-04-03 17:23:00,
2013-04-03 13:34:00,42.0,15.0,-100.00,NE,55,11.0,24.0,33,-99.99,,,-99.99,,2013-04-03 17:34:00,
2013-04-03 13:46:00,43.0,16.0,-100.00,ENE,75,12.0,24.0,33,-99.99,,,-99.99,,2013-04-03 17:46:00,
2013-04-03 13:53:00,43.0,16.0,-100.00,ENE,75,12.0,24.0,33,-99.99,,,-99.99,,2013-04-03 17:53:00,
2013-04-03 14:03:00,44.0,16.0,-100.00,NE,55,11.0,23.0,32,-99.99,,,-99.99,,2013-04-03 18:03:00,
2013-04-03 14:13:00,44.0,15.0,-100.00,East,95,16.0,22.0,31,-99.99,,,-99.99,,2013-04-03 18:13:00,
2013-04-03 14:23:00,44.0,15.0,-100.00,East,95,16.0,22.0,31,-99.99,,,-99.99,,2013-04-03 18:23:00,
2013-04-03 14:34:00,44.0,14.0,-100.00,East,80,9.0,21.0,30,-99.99,,,-99.99,,2013-04-03 18:34:00,
2013-04-03 14:43:00,42.0,13.0,-100.00,NE,40,17.0,26.0,30,-99.99,,,-99.99,,2013-04-03 18:43:00,
2013-04-03 14:52:00,42.0,13.0,-100.00,NE,40,17.0,26.0,30,-99.99,,,-99.99,,2013-04-03 18:52:00,
2013-04-03 15:03:00,44.0,15.0,-100.00,ENE,60,13.0,27.0,30,-99.99,,,-99.99,,2013-04-03 19:03:00,
2013-04-03 15:13:00,43.0,13.0,-100.00,NE,45,17.0,23.0,29,-99.99,,,-99.99,,2013-04-03 19:13:00,
2013-04-03 15:22:00,43.0,13.0,-100.00,NE,45,17.0,23.0,29,-99.99,,,-99.99,,2013-04-03 19:22:00,
2013-04-03 15:32:00,44.0,14.0,-100.00,NE,45,13.0,23.0,29,-99.99,,,-99.99,,2013-04-03 19:32:00,
2013-04-03 15:42:00,44.0,14.0,-100.00,East,85,19.0,30.0,29,-99.99,,,-99.99,,2013-04-03 19:42:00,
2013-04-03 15:52:00,44.0,14.0,-100.00,East,85,19.0,30.0,29,-99.99,,,-99.99,,2013-04-03 19:52:00,
2013-04-03 16:02:00,47.0,16.0,-100.00,East,95,15.0,27.0,28,-99.99,,,-99.99,,2013-04-03 20:02:00,
2013-04-03 16:13:00,44.0,13.0,-100.00,East,95,16.0,27.0,28,-99.99,,,-99.99,,2013-04-03 20:13:00,
2013-04-03 16:23:00,44.0,13.0,-100.00,East,95,16.0,27.0,28,-99.99,,,-99.99,,2013-04-03 20:23:00,
2013-04-03 16:33:00,46.0,14.0,-100.00,East,95,14.0,22.0,27,-99.99,,,-99.99,,2013-04-03 20:33:00,
2013-04-03 16:42:00,46.0,13.0,-100.00,East,100,21.0,31.0,26,-99.99,,,-99.99,,2013-04-03 20:42:00,
2013-04-03 16:52:00,46.0,13.0,-100.00,East,100,21.0,31.0,26,-99.99,,,-99.99,,2013-04-03 20:52:00,
2013-04-03 17:03:00,46.0,12.0,-100.00,East,95,17.0,35.0,25,-99.99,,,-99.99,,2013-04-03 21:03:00,
2013-04-03 17:12:00,46.0,12.0,-100.00,East,90,15.0,30.0,25,-99.99,,,-99.99,,2013-04-03 21:12:00,
2013-04-03 17:22:00,46.0,12.0,-100.00,East,90,15.0,30.0,25,-99.99,,,-99.99,,2013-04-03 21:22:00,
2013-04-03 17:33:00,45.0,11.0,-100.00,East,100,19.0,25.0,25,-99.99,,,-99.99,,2013-04-03 21:33:00,
2013-04-03 17:42:00,45.0,11.0,-100.00,ESE,115,12.0,19.0,25,-99.99,,,-99.99,,2013-04-03 21:42:00,
2013-04-03 17:52:00,45.0,11.0,-100.00,ESE,115,12.0,19.0,25,-99.99,,,-99.99,,2013-04-03 21:52:00,
2013-04-03 18:02:00,46.0,12.0,-100.00,ESE,115,13.0,19.0,25,-99.99,,,-99.99,,2013-04-03 22:02:00,
2013-04-03 18:13:00,46.0,11.0,-100.00,ESE,120,12.0,27.0,24,-99.99,,,-99.99,,2013-04-03 22:13:00,
2013-04-03 18:22:00,46.0,11.0,-100.00,ESE,120,12.0,27.0,24,-99.99,,,-99.99,,2013-04-03 22:22:00,
2013-04-03 18:33:00,44.0,9.0,-100.00,SSE,155,9.0,20.0,24,-99.99,,,-99.99,,2013-04-03 22:33:00,
2013-04-03 18:42:00,44.0,10.0,-100.00,SE,125,10.0,19.0,25,-99.99,,,-99.99,,2013-04-03 22:42:00,
2013-04-03 18:52:00,44.0,10.0,-100.00,SE,125,10.0,19.0,25,-99.99,,,-99.99,,2013-04-03 22:52:00,
2013-04-03 19:02:00,44.0,9.0,-100.00,ESE,105,13.0,23.0,24,-99.99,,,-99.99,,2013-04-03 23:02:00,
2013-04-03 19:12:00,44.0,9.0,-100.00,East,100,11.0,22.0,24,-99.99,,,-99.99,,2013-04-03 23:12:00,
2013-04-03 19:22:00,44.0,9.0,-100.00,East,100,11.0,22.0,24,-99.99,,,-99.99,,2013-04-03 23:22:00,
2013-04-03 19:33:00,42.0,8.0,-100.00,East,95,13.0,28.0,24,-99.99,,,-99.99,,2013-04-03 23:33:00,
2013-04-03 19:43:00,42.0,8.0,-100.00,ESE,105,14.0,23.0,24,-99.99,,,-99.99,,2013-04-03 23:43:00,
2013-04-03 19:54:00,42.0,8.0,-100.00,ESE,105,14.0,23.0,24,-99.99,,,-99.99,,2013-04-03 23:54:00,
2013-04-03 20:03:00,41.0,7.0,-100.00,East,100,15.0,29.0,24,-99.99,,,-99.99,,2013-04-04 00:03:00,
2013-04-03 20:12:00,41.0,8.0,-100.00,East,95,18.0,23.0,25,-99.99,,,-99.99,,2013-04-04 00:12:00,
2013-04-03 20:22:00,41.0,8.0,-100.00,East,95,18.0,23.0,25,-99.99,,,-99.99,,2013-04-04 00:22:00,
2013-04-03 20:32:00,40.0,8.0,-100.00,ESE,110,11.0,24.0,26,-99.99,,,-99.99,,2013-04-04 00:32:00,
2013-04-03 20:43:00,40.0,8.0,-100.00,East,90,18.0,23.0,26,-99.99,,,-99.99,,2013-04-04 00:43:00,
2013-04-03 20:52:00,40.0,8.0,-100.00,East,90,18.0,23.0,26,-99.99,,,-99.99,,2013-04-04 00:52:00,
2013-04-03 21:02:00,39.0,7.0,-100.00,ESE,110,14.0,23.0,26,-99.99,,,-99.99,,2013-04-04 01:02:00,
2013-04-03 21:12:00,39.0,8.0,-100.00,ESE,110,8.0,13.0,27,-99.99,,,-99.99,,2013-04-04 01:12:00,
2013-04-03 21:22:00,39.0,8.0,-100.00,ESE,110,8.0,13.0,27,-99.99,,,-99.99,,2013-04-04 01:22:00,
2013-04-03 21:32:00,38.0,8.0,-100.00,SE,125,6.0,14.0,28,-99.99,,,-99.99,,2013-04-04 01:32:00,
2013-04-03 21:43:00,38.0,8.0,-100.00,ESE,120,9.0,13.0,29,-99.99,,,-99.99,,2013-04-04 01:43:00,
2013-04-03 21:52:00,38.0,8.0,-100.00,ESE,120,9.0,13.0,29,-99.99,,,-99.99,,2013-04-04 01:52:00,
2013-04-03 22:02:00,38.0,8.0,-100.00,East,100,6.0,17.0,29,-99.99,,,-99.99,,2013-04-04 02:02:00,
2013-04-03 22:12:00,37.0,8.0,-100.00,ESE,120,6.0,13.0,29,-99.99,,,-99.99,,2013-04-04 02:12:00,
2013-04-03 22:22:00,37.0,8.0,-100.00,ESE,120,6.0,13.0,29,-99.99,,,-99.99,,2013-04-04 02:22:00,
2013-04-03 22:32:00,37.0,8.0,-100.00,ESE,120,4.0,9.0,30,-99.99,,,-99.99,,2013-04-04 02:32:00,
2013-04-03 22:42:00,37.0,8.0,-100.00,ESE,120,4.0,9.0,30,-99.99,,,-99.99,,2013-04-04 02:42:00,
2013-04-03 23:02:00,36.0,8.0,-100.00,ESE,110,7.0,15.0,31,-99.99,,,-99.99,,2013-04-04 03:02:00,
2013-04-03 23:12:00,36.0,8.0,-100.00,ESE,120,9.0,14.0,31,-99.99,,,-99.99,,2013-04-04 03:12:00,
2013-04-03 23:23:00,36.0,8.0,-100.00,ESE,120,9.0,14.0,31,-99.99,,,-99.99,,2013-04-04 03:23:00,
2013-04-03 23:34:00,36.0,8.0,-100.00,ESE,110,10.0,17.0,31,-99.99,,,-99.99,,2013-04-04 03:34:00,
2013-04-03 23:45:00,35.0,9.0,-100.00,East,95,9.0,18.0,32,-99.99,,,-99.99,,2013-04-04 03:45:00,
2013-04-03 23:53:00,35.0,9.0,-100.00,East,95,9.0,18.0,32,-99.99,,,-99.99,,2013-04-04 03:53:00,